createdAt,value
2022-08-23T00:01:39.364Z,54.87
2022-08-23T00:04:09.220Z,55.31
2022-08-23T00:06:38.411Z,54.77
2022-08-23T00:09:07.100Z,54.71
2022-08-23T00:11:38.111Z,54.80
2022-08-23T00:14:08.478Z,53.95
2022-08-23T00:16:35.416Z,54.24
2022-08-23T00:19:02.581Z,53.86
2022-08-23T00:21:30.146Z,53.98
2022-08-23T00:23:57.147Z,54.48
2022-08-23T00:26:26.152Z,54.25
2022-08-23T00:28:53.039Z,54.47
2022-08-23T00:31:20.076Z,54.88
2022-08-23T00:33:47.074Z,55.36
2022-08-23T00:36:13.789Z,55.62
2022-08-23T00:38:40.670Z,55.28
2022-08-23T00:41:07.685Z,54.87
2022-08-23T00:43:58.189Z,54.40
2022-08-23T00:46:56.570Z,54.96
2022-08-23T00:49:24.386Z,55.36
2022-08-23T00:51:57.890Z,55.65
2022-08-23T00:54:28.028Z,55.36
2022-08-23T00:56:57.661Z,55.53
2022-08-23T00:59:26.275Z,55.77
2022-08-23T01:01:53.465Z,55.98
2022-08-23T01:04:20.818Z,55.98
2022-08-23T01:06:53.653Z,55.41
2022-08-23T01:09:21.291Z,55.58
2022-08-23T01:11:52.995Z,55.34
2022-08-23T01:14:27.142Z,55.54
2022-08-23T01:16:57.599Z,55.26
2022-08-23T01:19:31.749Z,54.72
2022-08-23T01:22:03.696Z,53.80
2022-08-23T01:25:05.771Z,53.39
2022-08-23T01:27:19.434Z,54.19
2022-08-23T01:29:47.394Z,54.58
2022-08-23T01:32:14.871Z,55.19
2022-08-23T01:34:45.420Z,55.27
2022-08-23T01:37:21.188Z,54.15
2022-08-23T01:39:50.035Z,54.45
2022-08-23T01:42:16.859Z,54.74
2022-08-23T01:44:43.727Z,56.00
2022-08-23T01:47:10.396Z,56.34
2022-08-23T01:49:37.403Z,56.36
2022-08-23T01:52:04.226Z,56.20
2022-08-23T01:54:31.022Z,56.40
2022-08-23T01:57:01.689Z,55.75
2022-08-23T01:59:28.771Z,55.29
2022-08-23T02:01:55.722Z,55.72
2022-08-23T02:04:22.888Z,55.15
2022-08-23T02:06:49.858Z,55.26
2022-08-23T02:09:20.649Z,54.87
2022-08-23T02:11:49.745Z,54.13
2022-08-23T02:14:20.341Z,55.08
2022-08-23T02:17:04.020Z,55.25
2022-08-23T02:19:32.897Z,55.71
2022-08-23T02:21:59.733Z,55.62
2022-08-23T02:24:27.118Z,55.99
2022-08-23T02:26:59.310Z,56.04
2022-08-23T02:29:29.818Z,55.79
2022-08-23T02:31:58.778Z,55.27
2022-08-23T02:34:39.751Z,55.39
2022-08-23T02:37:07.503Z,55.76
2022-08-23T02:39:34.643Z,55.93
2022-08-23T02:42:01.579Z,55.86
2022-08-23T02:44:34.712Z,56.17
2022-08-23T02:47:03.182Z,55.95
2022-08-23T02:49:30.325Z,55.84
2022-08-23T02:51:57.383Z,56.02
2022-08-23T02:54:24.643Z,55.92
2022-08-23T02:56:52.931Z,56.40
2022-08-23T02:59:20.182Z,56.27
2022-08-23T03:01:48.935Z,55.92
2022-08-23T03:04:23.142Z,55.92
2022-08-23T03:06:49.958Z,55.69
2022-08-23T03:09:17.224Z,55.75
2022-08-23T03:11:46.062Z,56.16
2022-08-23T03:14:13.180Z,55.82
2022-08-23T03:16:42.342Z,55.90
2022-08-23T03:19:10.917Z,55.71
2022-08-23T03:21:38.508Z,56.24
2022-08-23T03:24:10.056Z,56.28
2022-08-23T03:26:38.121Z,56.47
2022-08-23T03:29:05.245Z,56.51
2022-08-23T03:31:42.025Z,56.66
2022-08-23T03:34:12.915Z,56.35
2022-08-23T03:36:39.850Z,56.15
2022-08-23T03:39:07.126Z,55.65
2022-08-23T03:41:34.118Z,55.31
2022-08-23T03:44:00.860Z,55.65
2022-08-23T03:46:34.374Z,55.33
2022-08-23T03:49:04.187Z,55.36
2022-08-23T03:51:43.206Z,55.19
2022-08-23T03:54:10.405Z,54.71
2022-08-23T03:56:40.164Z,54.58
2022-08-23T03:59:11.503Z,54.67
2022-08-23T04:01:38.225Z,55.25
2022-08-23T04:04:05.222Z,56.29
2022-08-23T04:06:33.128Z,56.73
2022-08-23T04:09:01.177Z,56.52
2022-08-23T04:11:28.033Z,56.52
2022-08-23T04:14:03.375Z,56.22
2022-08-23T04:16:33.372Z,55.45
2022-08-23T04:19:00.739Z,55.02
2022-08-23T04:21:31.509Z,56.17
2022-08-23T04:23:58.747Z,57.00
2022-08-23T04:26:30.148Z,56.86
2022-08-23T04:28:57.111Z,57.36
2022-08-23T04:31:26.744Z,57.15
2022-08-23T04:33:55.609Z,56.69
2022-08-23T04:36:23.906Z,56.97
2022-08-23T04:38:52.186Z,56.79
2022-08-23T04:41:37.958Z,56.56
2022-08-23T04:44:06.075Z,55.89
2022-08-23T04:46:34.623Z,55.63
2022-08-23T04:49:03.850Z,56.51
2022-08-23T04:51:30.710Z,56.97
2022-08-23T04:53:57.388Z,56.76
2022-08-23T04:56:39.336Z,56.91
2022-08-23T04:59:09.017Z,57.02
2022-08-23T05:01:42.362Z,57.05
2022-08-23T05:04:09.458Z,56.78
2022-08-23T05:06:38.472Z,56.96
2022-08-23T05:09:05.628Z,56.90
2022-08-23T05:11:33.967Z,56.67
2022-08-23T05:14:00.870Z,56.73
2022-08-23T05:16:28.869Z,56.38
2022-08-23T05:19:03.757Z,56.26
2022-08-23T05:21:32.802Z,56.21
2022-08-23T05:24:00.300Z,55.98
2022-08-23T05:26:28.863Z,55.62
2022-08-23T05:28:55.524Z,56.00
2022-08-23T05:31:30.458Z,55.73
2022-08-23T05:33:59.579Z,55.88
2022-08-23T05:36:47.594Z,55.83
2022-08-23T05:39:28.737Z,56.09
2022-08-23T05:42:06.981Z,56.11
2022-08-23T05:44:36.756Z,55.96
2022-08-23T05:47:10.543Z,56.19
2022-08-23T05:49:47.583Z,55.88
2022-08-23T05:52:14.790Z,55.71
2022-08-23T05:54:43.239Z,55.71
2022-08-23T05:57:45.305Z,55.40
2022-08-23T06:00:15.477Z,55.64
2022-08-23T06:02:55.297Z,55.91
2022-08-23T06:05:22.430Z,56.13
2022-08-23T06:07:50.298Z,56.17
2022-08-23T06:10:20.747Z,56.42
2022-08-23T06:12:53.937Z,55.69
2022-08-23T06:15:21.153Z,55.85
2022-08-23T06:17:48.094Z,56.78
2022-08-23T06:20:16.583Z,56.42
2022-08-23T06:22:58.006Z,55.85
2022-08-23T06:25:24.899Z,56.30
2022-08-23T06:27:55.951Z,56.40
2022-08-23T06:30:23.294Z,55.87
2022-08-23T06:33:13.753Z,56.18
2022-08-23T06:35:47.838Z,56.29
2022-08-23T06:38:20.307Z,56.25
2022-08-23T06:41:12.374Z,56.08
2022-08-23T06:43:51.416Z,55.52
2022-08-23T06:46:21.717Z,55.08
2022-08-23T06:48:51.224Z,54.66
2022-08-23T06:51:23.620Z,55.07
2022-08-23T06:53:55.266Z,54.82
2022-08-23T06:56:42.155Z,54.62
2022-08-23T06:59:14.582Z,54.59
2022-08-23T07:02:12.816Z,54.13
2022-08-23T07:04:58.789Z,53.80
2022-08-23T07:07:45.147Z,53.50
2022-08-23T07:10:15.536Z,53.47
2022-08-23T07:12:42.922Z,52.75
2022-08-23T07:15:11.598Z,52.79
2022-08-23T07:17:39.736Z,52.62
2022-08-23T07:20:07.447Z,52.75
2022-08-23T07:22:36.558Z,52.92
2022-08-23T07:25:05.610Z,52.81
2022-08-23T07:27:33.675Z,52.30
2022-08-23T07:30:07.209Z,52.03
2022-08-23T07:32:36.008Z,51.61
2022-08-23T07:35:13.811Z,50.38
2022-08-23T07:37:42.915Z,50.25
2022-08-23T07:40:20.206Z,50.03
2022-08-23T07:42:48.344Z,49.47
2022-08-23T07:45:15.282Z,49.76
2022-08-23T07:47:50.134Z,49.34
2022-08-23T07:50:18.794Z,47.89
2022-08-23T07:52:46.177Z,47.79
2022-08-23T07:55:15.030Z,47.76
2022-08-23T07:58:00.129Z,46.73
2022-08-23T08:00:55.956Z,46.31
2022-08-23T08:03:35.924Z,48.00
2022-08-23T08:06:26.605Z,47.68
2022-08-23T08:08:53.558Z,47.48
2022-08-23T08:11:24.369Z,46.60
2022-08-23T08:13:52.060Z,45.46
2022-08-23T08:16:23.255Z,45.11
2022-08-23T08:18:51.351Z,44.88
2022-08-23T08:21:51.322Z,45.82
2022-08-23T08:24:35.977Z,44.23
2022-08-23T08:27:08.685Z,44.36
2022-08-23T08:29:35.441Z,44.55
2022-08-23T08:32:02.533Z,44.90
2022-08-23T08:34:29.623Z,44.43
2022-08-23T08:36:58.958Z,43.08
2022-08-23T08:39:30.062Z,42.57
2022-08-23T08:42:18.785Z,43.30
2022-08-23T08:44:52.217Z,43.19
2022-08-23T08:47:34.976Z,42.68
2022-08-23T08:50:09.698Z,41.56
2022-08-23T08:52:40.913Z,41.39
2022-08-23T08:55:19.659Z,41.97
2022-08-23T08:57:50.334Z,40.64
2022-08-23T09:00:19.893Z,40.70
2022-08-23T09:02:47.345Z,40.00
2022-08-23T09:05:16.990Z,39.62
2022-08-23T09:07:54.607Z,38.38
2022-08-23T09:10:44.826Z,36.87
2022-08-23T09:13:32.489Z,37.71
2022-08-23T09:16:13.614Z,38.71
2022-08-23T09:18:40.456Z,37.78
2022-08-23T09:21:09.602Z,37.96
2022-08-23T09:23:41.348Z,38.01
2022-08-23T09:26:19.709Z,37.61
2022-08-23T09:28:50.113Z,36.83
2022-08-23T09:31:38.859Z,36.46
2022-08-23T09:34:06.793Z,36.39
2022-08-23T09:36:48.604Z,37.13
2022-08-23T09:39:30.921Z,36.25
2022-08-23T09:42:02.289Z,36.47
2022-08-23T09:44:37.148Z,35.83
2022-08-23T09:47:11.712Z,34.19
2022-08-23T09:49:44.249Z,33.99
2022-08-23T09:52:21.980Z,34.31
2022-08-23T09:55:00.185Z,34.53
2022-08-23T09:57:30.015Z,33.87
2022-08-23T10:00:01.554Z,33.09
2022-08-23T10:02:39.574Z,32.85
2022-08-23T10:05:19.867Z,32.74
2022-08-23T10:07:55.500Z,33.87
2022-08-23T10:10:29.188Z,34.01
2022-08-23T10:13:00.895Z,33.57
2022-08-23T10:15:45.615Z,33.18
2022-08-23T10:18:24.821Z,33.00
2022-08-23T10:21:01.518Z,33.12
2022-08-23T10:23:42.470Z,33.39
2022-08-23T10:26:18.932Z,32.04
2022-08-23T10:29:08.752Z,33.01
2022-08-23T10:31:47.355Z,32.25
2022-08-23T10:34:27.334Z,31.98
2022-08-23T10:37:18.379Z,32.53
2022-08-23T10:39:52.914Z,32.08
2022-08-23T10:42:27.457Z,31.05
2022-08-23T10:45:01.408Z,31.25
2022-08-23T10:47:37.301Z,31.40
2022-08-23T10:50:09.095Z,30.73
2022-08-23T10:52:40.793Z,30.73
2022-08-23T10:55:24.555Z,30.69
2022-08-23T10:57:53.265Z,31.29
2022-08-23T11:00:24.848Z,31.19
2022-08-23T11:02:59.689Z,31.00
2022-08-23T11:05:35.832Z,31.13
2022-08-23T11:08:12.750Z,30.66
2022-08-23T11:10:56.070Z,30.85
2022-08-23T11:13:29.300Z,31.33
2022-08-23T11:15:59.516Z,31.56
2022-08-23T11:18:43.918Z,29.75
2022-08-23T11:21:44.317Z,30.51
2022-08-23T11:24:47.896Z,30.81
2022-08-23T11:27:26.478Z,31.10
2022-08-23T11:29:53.380Z,31.16
2022-08-23T11:32:36.319Z,31.45
2022-08-23T11:35:11.472Z,31.30
2022-08-23T11:37:56.949Z,30.42
2022-08-23T11:40:58.695Z,28.64
2022-08-23T11:43:38.178Z,29.55
2022-08-23T11:46:31.637Z,30.04
2022-08-23T11:49:49.799Z,30.56
2022-08-23T11:52:34.935Z,30.93
2022-08-23T11:55:24.295Z,30.60
2022-08-23T11:58:15.369Z,30.47
2022-08-23T12:00:54.797Z,28.26
2022-08-23T12:03:25.695Z,29.89
2022-08-23T12:06:34.532Z,29.71
2022-08-23T12:09:11.927Z,30.35
2022-08-23T12:12:12.744Z,29.55
2022-08-23T12:14:52.164Z,29.47
2022-08-23T12:17:56.671Z,30.35
2022-08-23T12:20:30.546Z,29.79
2022-08-23T12:23:05.737Z,30.24
2022-08-23T12:25:34.575Z,29.86
2022-08-23T12:28:11.732Z,29.84
2022-08-23T12:30:50.393Z,29.88
2022-08-23T12:33:30.395Z,30.19
2022-08-23T12:36:12.461Z,30.12
2022-08-23T12:38:52.281Z,30.78
2022-08-23T12:41:23.237Z,30.64
2022-08-23T12:44:00.110Z,28.36
2022-08-23T12:46:34.387Z,28.70
2022-08-23T12:49:01.502Z,29.82
2022-08-23T12:51:28.621Z,30.13
2022-08-23T12:53:56.433Z,30.17
2022-08-23T12:56:31.555Z,29.60
2022-08-23T12:59:04.882Z,28.05
2022-08-23T13:01:36.630Z,28.05
2022-08-23T13:04:09.234Z,29.47
2022-08-23T13:06:42.301Z,29.09
2022-08-23T13:09:15.185Z,30.01
2022-08-23T13:11:44.834Z,29.35
2022-08-23T13:14:26.425Z,30.19
2022-08-23T13:17:11.872Z,29.77
2022-08-23T13:19:38.638Z,29.89
2022-08-23T13:22:13.878Z,30.11
2022-08-23T13:24:42.665Z,29.82
2022-08-23T13:27:21.871Z,28.46
2022-08-23T13:29:53.607Z,29.80
2022-08-23T13:32:33.218Z,29.38
2022-08-23T13:35:22.578Z,29.98
2022-08-23T13:37:50.261Z,29.79
2022-08-23T13:40:23.732Z,30.10
2022-08-23T13:42:57.003Z,30.88
2022-08-23T13:45:27.190Z,31.15
2022-08-23T13:47:57.262Z,31.04
2022-08-23T13:50:26.317Z,30.85
2022-08-23T13:55:42.625Z,29.13
2022-08-23T13:58:12.603Z,30.60
2022-08-23T14:00:39.646Z,30.57
2022-08-23T14:03:12.782Z,31.69
2022-08-23T14:05:39.440Z,29.35
2022-08-23T14:08:06.086Z,29.05
2022-08-23T14:10:33.267Z,29.20
2022-08-23T14:13:02.198Z,28.02
2022-08-23T14:18:17.061Z,31.15
2022-08-23T14:20:45.723Z,30.99
2022-08-23T14:23:13.344Z,31.74
2022-08-23T14:25:40.085Z,30.67
2022-08-23T14:28:06.710Z,31.51
2022-08-23T14:30:36.641Z,32.47
2022-08-23T14:33:04.683Z,32.14
2022-08-23T14:35:31.758Z,31.17
2022-08-23T14:38:05.644Z,32.62
2022-08-23T14:40:33.133Z,30.89
2022-08-23T14:42:59.814Z,30.79
2022-08-23T14:45:27.285Z,31.06
2022-08-23T14:47:55.232Z,31.90
2022-08-23T14:50:22.189Z,32.02
2022-08-23T14:52:48.881Z,31.97
2022-08-23T14:55:15.777Z,32.21
2022-08-23T14:57:42.689Z,32.04
2022-08-23T15:00:14.285Z,30.63
2022-08-23T15:02:44.411Z,30.69
2022-08-23T15:05:13.386Z,31.00
2022-08-23T15:07:40.027Z,32.11
2022-08-23T15:10:09.780Z,32.70
2022-08-23T15:15:23.578Z,33.14
2022-08-23T15:17:54.740Z,31.95
2022-08-23T15:20:25.202Z,31.87
2022-08-23T15:22:55.395Z,31.97
2022-08-23T15:25:23.395Z,32.51
2022-08-23T15:27:50.996Z,31.31
2022-08-23T15:30:18.134Z,31.14
2022-08-23T15:32:52.593Z,31.63
2022-08-23T15:35:25.907Z,33.20
2022-08-23T15:37:53.557Z,33.16
2022-08-23T15:40:20.631Z,33.26
2022-08-23T15:42:47.332Z,32.78
2022-08-23T15:45:14.413Z,33.48
2022-08-23T15:47:47.763Z,32.81
2022-08-23T15:50:16.455Z,30.84
2022-08-23T15:52:44.724Z,31.18
2022-08-23T15:55:12.067Z,32.63
2022-08-23T15:57:43.017Z,32.74
2022-08-23T16:00:11.540Z,33.51
2022-08-23T16:03:14.078Z,33.17
2022-08-23T16:05:28.081Z,32.86
2022-08-23T16:07:57.724Z,33.48
2022-08-23T16:10:25.088Z,33.17
2022-08-23T16:12:54.737Z,33.66
2022-08-23T16:15:21.407Z,33.36
2022-08-23T16:17:48.545Z,32.91
2022-08-23T16:20:15.390Z,33.00
2022-08-23T16:22:42.068Z,33.27
2022-08-23T16:25:10.809Z,33.48
2022-08-23T16:27:37.658Z,33.49
2022-08-23T16:30:09.935Z,35.36
2022-08-23T16:41:22.352Z,35.12
2022-08-23T16:43:50.037Z,33.79
2022-08-23T16:46:17.383Z,33.72
2022-08-23T16:48:45.170Z,34.05
2022-08-23T16:51:12.547Z,32.99
2022-08-23T16:53:39.404Z,32.29
2022-08-23T16:56:07.652Z,33.26
2022-08-23T16:58:37.249Z,33.60
2022-08-23T17:01:04.553Z,33.09
2022-08-23T17:03:31.285Z,33.38
2022-08-23T17:05:57.943Z,34.24
2022-08-23T17:08:24.589Z,33.92
2022-08-23T17:10:51.297Z,33.80
2022-08-23T17:13:18.793Z,32.99
2022-08-23T17:15:46.818Z,32.79
2022-08-23T17:18:13.426Z,32.69
2022-08-23T17:20:40.468Z,33.43
2022-08-23T17:23:08.056Z,32.69
2022-08-23T17:25:35.979Z,32.24
2022-08-23T17:28:04.501Z,32.71
2022-08-23T17:30:32.013Z,32.38
2022-08-23T17:33:00.087Z,32.51
2022-08-23T17:35:29.498Z,32.41
2022-08-23T17:38:01.793Z,32.98
2022-08-23T17:40:30.960Z,33.36
2022-08-23T17:42:59.496Z,33.66
2022-08-23T17:45:26.829Z,34.36
2022-08-23T17:47:54.038Z,34.05
2022-08-23T17:50:22.255Z,34.77
2022-08-23T17:52:50.877Z,34.91
2022-08-23T17:55:18.347Z,35.62
2022-08-23T17:57:45.813Z,35.58
2022-08-23T18:00:15.936Z,35.73
2022-08-23T18:02:43.253Z,35.77
2022-08-23T18:05:10.578Z,35.77
2022-08-23T18:07:39.969Z,36.03
2022-08-23T18:10:08.807Z,35.76
2022-08-23T18:12:35.602Z,35.84
2022-08-23T18:15:04.422Z,36.23
2022-08-23T18:17:32.100Z,36.44
2022-08-23T18:19:58.993Z,37.13
2022-08-23T18:22:26.402Z,36.82
2022-08-23T18:24:54.488Z,36.83
2022-08-23T18:27:40.304Z,37.14
2022-08-23T18:30:09.120Z,38.13
2022-08-23T18:32:35.811Z,38.93
2022-08-23T18:35:02.775Z,39.48
2022-08-23T18:37:29.508Z,40.18
2022-08-23T18:39:57.556Z,39.82
2022-08-23T18:42:24.754Z,40.29
2022-08-23T18:44:51.509Z,40.39
2022-08-23T18:47:18.315Z,40.63
2022-08-23T18:49:45.028Z,40.51
2022-08-23T18:52:12.356Z,40.71
2022-08-23T18:54:39.108Z,40.81
2022-08-23T18:57:07.168Z,40.68
2022-08-23T18:59:33.861Z,41.17
2022-08-23T19:02:00.726Z,41.52
2022-08-23T19:04:27.911Z,40.93
2022-08-23T19:06:54.623Z,40.93
2022-08-23T19:09:21.935Z,40.60
2022-08-23T19:11:49.412Z,41.88
2022-08-23T19:14:17.509Z,42.03
2022-08-23T19:16:48.169Z,42.35
2022-08-23T19:19:15.926Z,42.52
2022-08-23T19:21:42.765Z,43.32
2022-08-23T19:24:09.439Z,43.22
2022-08-23T19:26:36.811Z,43.72
2022-08-23T19:29:07.660Z,43.78
2022-08-23T19:31:41.708Z,43.78
2022-08-23T19:34:08.981Z,44.09
2022-08-23T19:36:46.301Z,44.10
2022-08-23T19:39:16.460Z,44.12
2022-08-23T19:41:43.783Z,43.26
2022-08-23T19:44:10.894Z,42.49
2022-08-23T19:46:42.071Z,42.61
2022-08-23T19:49:09.920Z,42.83
2022-08-23T19:51:37.281Z,43.33
2022-08-23T19:54:11.027Z,43.72
2022-08-23T19:56:41.265Z,44.40
2022-08-23T19:59:10.454Z,45.02
2022-08-23T20:01:37.343Z,44.76
2022-08-23T20:04:05.990Z,44.84
2022-08-23T20:06:32.648Z,45.63
2022-08-23T20:08:59.767Z,45.42
2022-08-23T20:11:27.843Z,45.93
2022-08-23T20:13:56.541Z,46.61
2022-08-23T20:16:23.930Z,46.97
2022-08-23T20:18:51.502Z,47.17
2022-08-23T20:21:19.533Z,46.40
2022-08-23T20:24:04.157Z,46.22
2022-08-23T20:26:33.914Z,45.76
2022-08-23T20:29:01.151Z,46.06
2022-08-23T20:31:30.546Z,46.79
2022-08-23T20:33:57.837Z,47.04
2022-08-23T20:36:28.102Z,46.98
2022-08-23T20:38:58.005Z,46.71
2022-08-23T20:41:25.695Z,47.13
2022-08-23T20:43:54.828Z,47.38
2022-08-23T20:46:21.719Z,47.43
2022-08-23T20:48:49.360Z,47.64
2022-08-23T20:51:15.990Z,46.99
2022-08-23T20:53:45.100Z,46.85
2022-08-23T20:56:11.993Z,46.68
2022-08-23T20:58:39.069Z,46.16
2022-08-23T21:01:09.332Z,46.35
2022-08-23T21:03:38.410Z,47.01
2022-08-23T21:06:08.480Z,47.29
2022-08-23T21:08:35.680Z,47.80
2022-08-23T21:11:11.266Z,48.31
2022-08-23T21:13:42.226Z,48.04
2022-08-23T21:16:08.899Z,47.96
2022-08-23T21:18:35.581Z,47.50
2022-08-23T21:21:02.306Z,47.12
2022-08-23T21:23:28.985Z,47.68
2022-08-23T21:25:56.910Z,48.06
2022-08-23T21:28:26.176Z,48.44
2022-08-23T21:30:53.465Z,48.76
2022-08-23T21:33:25.185Z,48.65
2022-08-23T21:35:51.830Z,48.81
2022-08-23T21:38:19.880Z,48.56
2022-08-23T21:40:46.537Z,48.14
2022-08-23T21:43:13.164Z,47.63
2022-08-23T21:45:41.561Z,46.95
2022-08-23T21:48:09.960Z,47.02
2022-08-23T21:50:36.774Z,47.24
2022-08-23T21:53:03.790Z,47.75
2022-08-23T21:55:36.883Z,47.72
2022-08-23T21:58:03.845Z,48.15
2022-08-23T22:00:30.953Z,48.16
2022-08-23T22:02:59.191Z,48.66
2022-08-23T22:05:26.786Z,48.86
2022-08-23T22:07:53.959Z,49.10
2022-08-23T22:10:23.375Z,49.39
2022-08-23T22:12:50.479Z,49.64
2022-08-23T22:15:17.517Z,49.71
2022-08-23T22:17:44.192Z,49.44
2022-08-23T22:20:13.623Z,49.59
2022-08-23T22:22:40.445Z,49.65
2022-08-23T22:25:08.712Z,49.75
2022-08-23T22:27:35.706Z,49.65
2022-08-23T22:30:02.354Z,49.99
2022-08-23T22:32:29.253Z,50.32
2022-08-23T22:34:56.198Z,50.50
2022-08-23T22:37:24.382Z,50.42
2022-08-23T22:39:51.092Z,50.63
2022-08-23T22:42:18.102Z,50.58
2022-08-23T22:44:44.729Z,49.88
2022-08-23T22:47:11.876Z,49.49
2022-08-23T22:49:38.890Z,49.47
2022-08-23T22:52:05.764Z,49.79
2022-08-23T22:54:33.880Z,50.21
2022-08-23T22:57:00.561Z,50.71
2022-08-23T22:59:27.614Z,50.79
2022-08-23T23:01:59.502Z,51.00
2022-08-23T23:04:30.097Z,50.95
2022-08-23T23:06:57.508Z,51.21
2022-08-23T23:09:25.098Z,51.20
2022-08-23T23:11:53.643Z,51.22
2022-08-23T23:14:21.338Z,51.01
2022-08-23T23:16:50.019Z,50.81
2022-08-23T23:19:35.971Z,50.81
2022-08-23T23:22:03.234Z,50.49
2022-08-23T23:24:32.635Z,50.45
2022-08-23T23:27:02.378Z,50.76
2022-08-23T23:29:30.445Z,51.09
2022-08-23T23:31:57.434Z,50.91
2022-08-23T23:34:24.189Z,50.83
2022-08-23T23:36:56.153Z,50.80
2022-08-23T23:39:22.952Z,50.43
2022-08-23T23:41:49.662Z,50.40
2022-08-23T23:44:24.374Z,50.41
2022-08-23T23:46:58.414Z,50.02
2022-08-23T23:49:32.920Z,50.26
2022-08-23T23:52:00.945Z,50.38
2022-08-23T23:54:27.580Z,50.83
2022-08-23T23:56:54.590Z,51.11
2022-08-23T23:59:22.550Z,51.24
